createdAt,value
2019-02-23T00:00:43.882Z,2.70
2019-02-23T00:01:43.868Z,3.10
2019-02-23T00:02:43.866Z,2.90
2019-02-23T00:03:43.865Z,2.90
2019-02-23T00:04:43.840Z,2.80
2019-02-23T00:05:43.835Z,2.80
2019-02-23T00:06:43.818Z,2.80
2019-02-23T00:07:43.803Z,2.90
2019-02-23T00:08:43.808Z,2.80
2019-02-23T00:09:43.793Z,2.80
2019-02-23T00:10:43.781Z,3.00
2019-02-23T00:11:43.764Z,2.90
2019-02-23T00:12:43.755Z,2.90
2019-02-23T00:13:43.761Z,2.80
2019-02-23T00:14:43.740Z,3.10
2019-02-23T00:15:43.726Z,2.80
2019-02-23T00:16:43.716Z,2.80
2019-02-23T00:17:43.704Z,2.90
2019-02-23T00:18:43.704Z,2.70
2019-02-23T00:19:43.682Z,2.70
2019-02-23T00:20:43.667Z,3.00
2019-02-23T00:21:43.658Z,2.90
2019-02-23T00:22:43.654Z,2.70
2019-02-23T00:23:43.650Z,3.10
2019-02-23T00:24:43.629Z,2.90
2019-02-23T00:25:43.615Z,3.00
2019-02-23T00:26:43.607Z,2.70
2019-02-23T00:27:43.593Z,3.00
2019-02-23T00:28:43.628Z,3.00
2019-02-23T00:29:43.576Z,3.30
2019-02-23T00:30:43.565Z,3.00
2019-02-23T00:31:43.554Z,2.80
2019-02-23T00:32:43.540Z,2.90
2019-02-23T00:33:43.531Z,2.80
2019-02-23T00:34:43.535Z,2.90
2019-02-23T00:35:43.531Z,2.80
2019-02-23T00:36:43.498Z,3.10
2019-02-23T00:37:43.497Z,3.00
2019-02-23T00:38:43.474Z,2.70
2019-02-23T00:39:43.483Z,3.10
2019-02-23T00:40:43.471Z,3.00
2019-02-23T00:41:43.445Z,3.10
2019-02-23T00:42:43.436Z,2.90
2019-02-23T00:43:43.425Z,2.70
2019-02-23T00:44:43.431Z,3.00
2019-02-23T00:45:43.408Z,3.10
2019-02-23T00:46:43.398Z,2.90
2019-02-23T00:47:43.385Z,2.80
2019-02-23T00:48:43.374Z,2.70
2019-02-23T00:49:43.377Z,3.10
2019-02-23T00:50:43.351Z,2.90
2019-02-23T00:51:43.345Z,3.00
2019-02-23T00:52:43.334Z,3.00
2019-02-23T00:53:43.330Z,3.20
2019-02-23T00:54:43.341Z,2.80
2019-02-23T00:55:43.297Z,2.90
2019-02-23T00:56:43.288Z,3.10
2019-02-23T00:57:43.276Z,3.00
2019-02-23T00:58:43.272Z,3.20
2019-02-23T00:59:43.276Z,2.90
2019-02-23T01:00:43.246Z,3.00
2019-02-23T01:01:43.242Z,3.10
2019-02-23T01:02:43.233Z,3.00
2019-02-23T01:03:43.301Z,2.80
2019-02-23T01:04:43.222Z,2.90
2019-02-23T01:05:43.195Z,3.00
2019-02-23T01:06:43.199Z,2.90
2019-02-23T01:07:43.176Z,2.80
2019-02-23T01:08:43.169Z,2.90
2019-02-23T01:09:43.170Z,3.30
2019-02-23T01:10:43.147Z,2.90
2019-02-23T01:11:43.138Z,3.00
2019-02-23T01:12:43.120Z,2.90
2019-02-23T01:13:43.115Z,3.00
2019-02-23T01:14:43.120Z,3.20
2019-02-23T01:15:43.097Z,2.90
2019-02-23T01:16:43.084Z,3.10
2019-02-23T01:17:43.071Z,2.90
2019-02-23T01:18:43.058Z,2.80
2019-02-23T01:19:47.670Z,2.80
2019-02-23T01:20:44.043Z,3.00
2019-02-23T01:21:43.036Z,2.90
2019-02-23T01:22:43.022Z,3.20
2019-02-23T01:23:43.007Z,3.20
2019-02-23T01:24:43.011Z,3.00
2019-02-23T01:25:42.993Z,3.00
2019-02-23T01:26:42.979Z,3.00
2019-02-23T01:27:42.975Z,2.80
2019-02-23T01:28:42.954Z,2.90
2019-02-23T01:29:42.957Z,3.00
2019-02-23T01:30:42.935Z,3.40
2019-02-23T01:31:42.930Z,2.80
2019-02-23T01:32:42.917Z,2.90
2019-02-23T01:33:42.905Z,3.00
2019-02-23T01:34:42.915Z,3.30
2019-02-23T01:35:42.892Z,2.80
2019-02-23T01:36:42.878Z,2.90
2019-02-23T01:37:42.868Z,3.10
2019-02-23T01:38:42.851Z,3.30
2019-02-23T01:39:42.888Z,2.80
2019-02-23T01:40:42.853Z,3.20
2019-02-23T01:41:42.820Z,3.30
2019-02-23T01:42:42.808Z,2.90
2019-02-23T01:43:42.797Z,3.10
2019-02-23T01:44:42.805Z,3.10
2019-02-23T01:45:42.871Z,3.40
2019-02-23T01:46:42.775Z,3.10
2019-02-23T01:47:42.756Z,3.00
2019-02-23T01:48:42.742Z,2.90
2019-02-23T01:49:42.753Z,2.70
2019-02-23T01:50:42.725Z,2.80
2019-02-23T01:51:42.718Z,3.20
2019-02-23T01:52:42.709Z,2.90
2019-02-23T01:53:42.699Z,2.80
2019-02-23T01:54:42.704Z,3.00
2019-02-23T01:55:42.676Z,3.10
2019-02-23T01:56:42.663Z,3.20
2019-02-23T01:57:42.650Z,3.50
2019-02-23T01:58:42.655Z,3.00
2019-02-23T01:59:42.654Z,3.20
2019-02-23T02:00:42.617Z,3.00
2019-02-23T02:01:42.614Z,2.90
2019-02-23T02:02:42.658Z,3.00
2019-02-23T02:03:42.594Z,3.00
2019-02-23T02:04:42.598Z,3.50
2019-02-23T02:05:42.578Z,2.90
2019-02-23T02:06:42.558Z,3.20
2019-02-23T02:07:42.562Z,2.80
2019-02-23T02:08:42.553Z,3.10
2019-02-23T02:09:42.548Z,3.20
2019-02-23T02:10:42.538Z,3.10
2019-02-23T02:11:42.507Z,3.10
2019-02-23T02:12:42.497Z,3.40
2019-02-23T02:13:42.483Z,3.10
2019-02-23T02:14:42.493Z,3.20
2019-02-23T02:15:42.465Z,3.00
2019-02-23T02:16:42.457Z,2.90
2019-02-23T02:17:42.480Z,3.20
2019-02-23T02:18:42.438Z,3.10
2019-02-23T02:19:42.433Z,3.10
2019-02-23T02:20:42.414Z,3.00
2019-02-23T02:21:42.404Z,3.10
2019-02-23T02:22:42.398Z,3.10
2019-02-23T02:23:42.456Z,3.20
2019-02-23T02:24:42.425Z,2.90
2019-02-23T02:25:42.360Z,3.10
2019-02-23T02:26:42.349Z,3.10
2019-02-23T02:27:42.422Z,3.10
2019-02-23T02:28:42.326Z,3.20
2019-02-23T02:29:42.345Z,3.20
2019-02-23T02:30:42.309Z,2.90
2019-02-23T02:31:42.299Z,2.70
2019-02-23T02:32:42.285Z,3.40
2019-02-23T02:33:42.276Z,3.30
2019-02-23T02:34:42.288Z,3.10
2019-02-23T02:35:42.255Z,3.20
2019-02-23T02:36:42.243Z,3.10
2019-02-23T02:37:42.240Z,3.00
2019-02-23T02:38:42.220Z,3.20
2019-02-23T02:39:42.209Z,3.20
2019-02-23T02:40:42.212Z,2.80
2019-02-23T02:41:42.194Z,3.10
2019-02-23T02:42:42.186Z,3.10
2019-02-23T02:43:42.167Z,3.20
2019-02-23T02:44:42.159Z,3.30
2019-02-23T02:45:42.162Z,3.00
2019-02-23T02:46:42.138Z,3.00
2019-02-23T02:47:42.127Z,3.10
2019-02-23T02:48:42.120Z,3.40
2019-02-23T02:49:42.110Z,3.10
2019-02-23T02:50:42.114Z,3.10
2019-02-23T02:51:42.084Z,3.40
2019-02-23T02:52:42.075Z,2.80
2019-02-23T02:53:42.068Z,3.20
2019-02-23T02:54:42.056Z,3.30
2019-02-23T02:55:42.084Z,3.30
2019-02-23T02:56:42.041Z,3.00
2019-02-23T02:57:42.061Z,3.10
2019-02-23T02:58:42.020Z,3.10
2019-02-23T02:59:42.008Z,3.30
2019-02-23T03:00:42.010Z,3.10
2019-02-23T03:01:41.984Z,3.20
2019-02-23T03:02:41.970Z,3.20
2019-02-23T03:03:41.963Z,3.30
2019-02-23T03:04:41.952Z,3.10
2019-02-23T03:05:41.954Z,3.30
2019-02-23T03:06:41.932Z,3.40
2019-02-23T03:07:41.919Z,3.30
2019-02-23T03:08:41.911Z,3.30
2019-02-23T03:09:41.894Z,3.40
2019-02-23T03:10:41.901Z,3.30
2019-02-23T03:11:41.876Z,3.50
2019-02-23T03:12:41.867Z,3.20
2019-02-23T03:13:41.854Z,3.20
2019-02-23T03:14:41.849Z,3.50
2019-02-23T03:15:41.849Z,3.40
2019-02-23T03:16:41.827Z,3.30
2019-02-23T03:17:41.812Z,3.30
2019-02-23T03:18:41.803Z,3.60
2019-02-23T03:19:41.797Z,3.60
2019-02-23T03:20:41.792Z,3.40
2019-02-23T03:21:41.774Z,3.50
2019-02-23T03:22:41.766Z,3.30
2019-02-23T03:23:41.749Z,3.60
2019-02-23T03:24:41.743Z,3.40
2019-02-23T03:25:41.742Z,3.30
2019-02-23T03:26:41.716Z,3.30
2019-02-23T03:27:41.712Z,3.50
2019-02-23T03:28:41.698Z,3.30
2019-02-23T03:29:41.808Z,3.40
2019-02-23T03:30:41.695Z,3.20
2019-02-23T03:31:41.666Z,3.30
2019-02-23T03:32:41.658Z,3.50
2019-02-23T03:33:41.651Z,3.30
2019-02-23T03:34:41.636Z,3.50
2019-02-23T03:35:41.637Z,3.30
2019-02-23T03:36:41.616Z,3.60
2019-02-23T03:37:41.601Z,3.30
2019-02-23T03:38:41.597Z,3.20
2019-02-23T03:39:41.585Z,3.70
2019-02-23T03:40:41.586Z,3.30
2019-02-23T03:41:41.564Z,3.20
2019-02-23T03:42:41.557Z,3.50
2019-02-23T03:43:41.544Z,3.60
2019-02-23T03:44:41.534Z,3.40
2019-02-23T03:45:41.533Z,3.50
2019-02-23T03:46:41.529Z,3.70
2019-02-23T03:47:41.500Z,3.40
2019-02-23T03:48:41.491Z,3.60
2019-02-23T03:49:41.480Z,3.60
2019-02-23T03:50:49.219Z,3.50
2019-02-23T03:51:42.457Z,3.50
2019-02-23T03:52:41.452Z,3.80
2019-02-23T03:53:41.438Z,3.60
2019-02-23T03:54:41.429Z,3.60
2019-02-23T03:55:41.442Z,3.60
2019-02-23T03:56:41.406Z,3.70
2019-02-23T03:57:41.397Z,3.60
2019-02-23T03:58:41.384Z,3.70
2019-02-23T03:59:41.383Z,3.50
2019-02-23T04:00:41.378Z,3.90
2019-02-23T04:01:41.354Z,3.50
2019-02-23T04:02:41.338Z,3.90
2019-02-23T04:03:41.333Z,3.70
2019-02-23T04:04:41.318Z,3.60
2019-02-23T04:05:41.321Z,3.50
2019-02-23T04:06:41.300Z,3.70
2019-02-23T04:07:41.288Z,3.80
2019-02-23T04:08:41.286Z,3.50
2019-02-23T04:09:41.267Z,3.70
2019-02-23T04:10:41.272Z,3.40
2019-02-23T04:11:41.246Z,3.50
2019-02-23T04:12:41.240Z,3.50
2019-02-23T04:13:41.227Z,3.70
2019-02-23T04:14:41.217Z,3.40
2019-02-23T04:15:41.220Z,3.70
2019-02-23T04:16:41.198Z,3.60
2019-02-23T04:17:41.194Z,3.80
2019-02-23T04:18:41.172Z,3.80
2019-02-23T04:19:41.170Z,3.60
2019-02-23T04:20:41.175Z,3.50
2019-02-23T04:21:41.143Z,3.60
2019-02-23T04:22:41.134Z,3.70
2019-02-23T04:23:41.141Z,3.90
2019-02-23T04:24:41.122Z,3.80
2019-02-23T04:25:41.102Z,3.90
2019-02-23T04:26:41.108Z,3.60
2019-02-23T04:27:41.086Z,3.80
2019-02-23T04:28:41.073Z,3.70
2019-02-23T04:29:41.060Z,3.70
2019-02-23T04:30:41.051Z,4.10
2019-02-23T04:31:41.059Z,4.00
2019-02-23T04:32:41.028Z,3.90
2019-02-23T04:33:41.015Z,4.10
2019-02-23T04:34:41.012Z,3.40
2019-02-23T04:35:40.995Z,4.00
2019-02-23T04:36:40.998Z,3.50
2019-02-23T04:37:40.998Z,3.70
2019-02-23T04:38:41.107Z,3.80
2019-02-23T04:39:40.953Z,3.80
2019-02-23T04:40:40.942Z,3.90
2019-02-23T04:41:40.948Z,3.60
2019-02-23T04:42:40.925Z,3.60
2019-02-23T04:43:44.039Z,3.70
2019-02-23T04:44:40.903Z,4.00
2019-02-23T04:45:40.893Z,3.70
2019-02-23T04:46:41.394Z,4.00
2019-02-23T04:47:40.875Z,4.20
2019-02-23T04:48:40.861Z,4.10
2019-02-23T04:49:40.852Z,3.90
2019-02-23T04:50:40.838Z,3.80
2019-02-23T04:51:40.843Z,4.10
2019-02-23T04:52:40.823Z,4.10
2019-02-23T04:53:40.808Z,4.10
2019-02-23T04:54:40.802Z,3.90
2019-02-23T04:55:40.786Z,4.00
2019-02-23T04:56:40.795Z,3.70
2019-02-23T04:57:40.776Z,4.20
2019-02-23T04:58:40.770Z,3.70
2019-02-23T04:59:40.742Z,4.30
2019-02-23T05:00:40.740Z,4.10
2019-02-23T05:01:40.739Z,4.10
2019-02-23T05:02:40.720Z,4.00
2019-02-23T05:03:40.704Z,3.80
2019-02-23T05:04:40.770Z,4.30
2019-02-23T05:05:40.681Z,3.90
2019-02-23T05:06:40.685Z,4.00
2019-02-23T05:07:40.665Z,4.10
2019-02-23T05:08:40.653Z,4.10
2019-02-23T05:09:40.650Z,4.00
2019-02-23T05:10:40.632Z,4.40
2019-02-23T05:11:40.629Z,4.00
2019-02-23T05:12:40.618Z,4.10
2019-02-23T05:13:40.596Z,3.80
2019-02-23T05:14:40.589Z,4.30
2019-02-23T05:15:40.574Z,4.20
2019-02-23T05:16:40.581Z,4.10
2019-02-23T05:17:40.556Z,4.10
2019-02-23T05:18:40.547Z,4.30
2019-02-23T05:19:40.538Z,4.10
2019-02-23T05:20:40.564Z,4.10
2019-02-23T05:21:40.533Z,4.30
2019-02-23T05:22:40.505Z,4.10
2019-02-23T05:23:40.500Z,4.30
2019-02-23T05:24:40.480Z,4.10
2019-02-23T05:25:40.582Z,4.10
2019-02-23T05:26:40.556Z,4.60
2019-02-23T05:27:40.456Z,4.50
2019-02-23T05:28:40.444Z,4.30
2019-02-23T05:29:40.436Z,4.30
2019-02-23T05:30:40.426Z,4.50
2019-02-23T05:31:40.428Z,4.10
2019-02-23T05:32:40.406Z,4.00
2019-02-23T05:33:40.389Z,3.90
2019-02-23T05:34:40.377Z,4.60
2019-02-23T05:35:40.404Z,4.30
2019-02-23T05:36:40.378Z,4.30
2019-02-23T05:37:40.354Z,4.50
2019-02-23T05:38:40.336Z,4.10
2019-02-23T05:39:40.327Z,4.20
2019-02-23T05:40:40.318Z,4.50
2019-02-23T05:41:40.325Z,4.30
2019-02-23T05:42:40.294Z,4.20
2019-02-23T05:43:40.284Z,4.20
2019-02-23T05:44:40.272Z,4.50
2019-02-23T05:45:40.268Z,4.70
2019-02-23T05:46:40.267Z,4.40
2019-02-23T05:47:40.244Z,4.60
2019-02-23T05:48:40.231Z,4.40
2019-02-23T05:49:40.225Z,4.90
2019-02-23T05:50:40.223Z,4.50
2019-02-23T05:51:40.222Z,4.20
2019-02-23T05:52:40.192Z,4.30
2019-02-23T05:53:40.182Z,4.30
2019-02-23T05:54:40.170Z,4.10
2019-02-23T05:55:40.161Z,4.30
2019-02-23T05:56:40.196Z,4.40
2019-02-23T05:57:40.137Z,4.50
2019-02-23T05:58:40.214Z,4.50
2019-02-23T05:59:40.119Z,4.30
2019-02-23T06:00:40.105Z,4.50
2019-02-23T06:01:40.110Z,4.60
2019-02-23T06:02:40.096Z,4.20
2019-02-23T06:03:40.079Z,4.40
2019-02-23T06:04:40.065Z,4.20
2019-02-23T06:05:40.055Z,4.60
2019-02-23T06:06:40.066Z,4.40
2019-02-23T06:07:40.038Z,4.60
2019-02-23T06:08:40.041Z,4.50
2019-02-23T06:09:40.015Z,4.40
2019-02-23T06:10:40.009Z,4.30
2019-02-23T06:11:40.012Z,4.50
2019-02-23T06:12:39.990Z,4.40
2019-02-23T06:13:39.972Z,4.80
2019-02-23T06:14:39.964Z,4.90
2019-02-23T06:15:39.950Z,4.70
2019-02-23T06:16:39.973Z,4.80
2019-02-23T06:17:39.931Z,5.10
2019-02-23T06:18:39.937Z,4.70
2019-02-23T06:19:39.928Z,4.40
2019-02-23T06:20:39.898Z,4.70
2019-02-23T06:21:53.039Z,4.80
2019-02-23T06:22:40.976Z,4.10
2019-02-23T06:23:39.878Z,4.50
2019-02-23T06:24:39.863Z,4.80
2019-02-23T06:25:39.852Z,4.30
2019-02-23T06:26:39.840Z,4.50
2019-02-23T06:27:39.849Z,4.60
2019-02-23T06:28:39.823Z,4.50
2019-02-23T06:29:39.811Z,4.80
2019-02-23T06:30:39.801Z,4.80
2019-02-23T06:31:39.794Z,4.80
2019-02-23T06:32:39.796Z,4.80
2019-02-23T06:33:39.769Z,4.60
2019-02-23T06:34:39.756Z,4.80
2019-02-23T06:35:39.755Z,5.00
2019-02-23T06:36:39.742Z,4.50
2019-02-23T06:37:39.746Z,4.90
2019-02-23T06:38:39.776Z,4.50
2019-02-23T06:39:39.710Z,4.80
2019-02-23T06:40:39.703Z,4.80
2019-02-23T06:41:39.690Z,4.60
2019-02-23T06:42:39.690Z,4.60
2019-02-23T06:43:39.671Z,4.60
2019-02-23T06:44:39.657Z,5.10
2019-02-23T06:45:39.640Z,5.20
2019-02-23T06:46:39.633Z,5.00
2019-02-23T06:47:39.653Z,4.70
2019-02-23T06:48:39.615Z,4.90
2019-02-23T06:49:39.603Z,4.80
2019-02-23T06:50:39.593Z,4.70
2019-02-23T06:51:39.578Z,4.90
2019-02-23T06:52:39.586Z,4.60
2019-02-23T06:53:39.557Z,4.80
2019-02-23T06:54:39.638Z,5.00
2019-02-23T06:55:39.535Z,5.00
2019-02-23T06:56:39.530Z,4.90
2019-02-23T06:57:39.542Z,4.80
2019-02-23T06:58:39.515Z,4.80
2019-02-23T06:59:39.499Z,5.10
2019-02-23T07:00:39.486Z,4.60
2019-02-23T07:01:39.487Z,4.90
2019-02-23T07:02:39.484Z,5.00
2019-02-23T07:03:39.454Z,5.00
2019-02-23T07:04:39.444Z,5.20
2019-02-23T07:05:39.441Z,5.40
2019-02-23T07:06:39.424Z,4.80
2019-02-23T07:07:39.436Z,4.90
2019-02-23T07:08:39.406Z,5.40
2019-02-23T07:09:39.400Z,4.80
2019-02-23T07:10:39.384Z,5.10
2019-02-23T07:11:39.370Z,5.30
2019-02-23T07:12:39.380Z,5.10
2019-02-23T07:13:39.349Z,5.40
2019-02-23T07:14:39.339Z,5.30
2019-02-23T07:15:39.392Z,5.10
2019-02-23T07:16:39.317Z,4.70
2019-02-23T07:17:39.333Z,4.70
2019-02-23T07:18:39.301Z,4.70
2019-02-23T07:19:39.287Z,4.60
2019-02-23T07:20:44.187Z,4.40
2019-02-23T07:21:40.269Z,4.80
2019-02-23T07:22:39.269Z,4.70
2019-02-23T07:23:39.244Z,5.00
2019-02-23T07:24:39.237Z,4.90
2019-02-23T07:25:39.221Z,5.10
2019-02-23T07:26:39.228Z,5.10
2019-02-23T07:27:39.223Z,4.70
2019-02-23T07:28:39.192Z,5.10
2019-02-23T07:29:39.186Z,5.20
2019-02-23T07:30:39.173Z,5.40
2019-02-23T07:31:39.160Z,5.30
2019-02-23T07:32:39.164Z,5.40
2019-02-23T07:33:39.148Z,5.40
2019-02-23T07:34:39.131Z,5.90
2019-02-23T07:35:39.124Z,5.70
2019-02-23T07:36:39.108Z,5.70
2019-02-23T07:37:39.112Z,5.70
2019-02-23T07:38:39.088Z,6.30
2019-02-23T07:39:39.079Z,6.30
2019-02-23T07:40:39.067Z,6.20
2019-02-23T07:41:39.062Z,6.40
2019-02-23T07:42:39.063Z,5.80
2019-02-23T07:43:39.038Z,6.20
2019-02-23T07:44:39.030Z,6.50
2019-02-23T07:45:39.019Z,6.70
2019-02-23T07:46:39.008Z,6.80
2019-02-23T07:47:38.997Z,6.70
2019-02-23T07:48:39.000Z,6.50
2019-02-23T07:49:38.973Z,7.10
2019-02-23T07:50:39.046Z,7.10
2019-02-23T07:51:38.953Z,7.30
2019-02-23T07:52:39.105Z,7.50
2019-02-23T07:53:39.115Z,7.40
2019-02-23T07:54:38.956Z,6.80
2019-02-23T07:55:39.115Z,6.90
2019-02-23T07:56:38.968Z,7.00
2019-02-23T07:57:39.199Z,7.40
2019-02-23T07:58:38.905Z,6.90
2019-02-23T07:59:38.883Z,6.90
2019-02-23T08:00:38.861Z,6.90
2019-02-23T08:01:38.919Z,6.70
2019-02-23T08:02:38.897Z,7.10
2019-02-23T08:03:38.925Z,6.90
2019-02-23T08:04:39.013Z,6.90
2019-02-23T08:05:38.881Z,7.10
2019-02-23T08:06:38.801Z,7.20
2019-02-23T08:07:39.955Z,6.50
2019-02-23T08:08:38.791Z,6.80
2019-02-23T08:09:38.898Z,7.20
2019-02-23T08:10:38.809Z,7.20
2019-02-23T08:11:38.889Z,6.80
2019-02-23T08:12:38.861Z,7.80
2019-02-23T08:13:40.620Z,9.40
2019-02-23T08:14:38.765Z,9.10
2019-02-23T08:15:38.832Z,12.10
2019-02-23T08:16:38.826Z,83.50
2019-02-23T08:17:38.718Z,659.30
2019-02-23T08:18:38.943Z,784.60
2019-02-23T08:19:38.660Z,798.00
2019-02-23T08:20:38.701Z,745.00
2019-02-23T08:21:38.633Z,721.10
2019-02-23T08:22:38.636Z,704.50
2019-02-23T08:23:38.644Z,874.00
2019-02-23T08:24:38.614Z,765.70
2019-02-23T08:25:38.603Z,783.50
2019-02-23T08:26:38.586Z,767.00
2019-02-23T08:27:38.577Z,740.10
2019-02-23T08:28:38.581Z,707.90
2019-02-23T08:29:38.555Z,692.60
2019-02-23T08:30:38.545Z,665.00
2019-02-23T08:31:38.536Z,637.30
2019-02-23T08:32:38.519Z,608.70
2019-02-23T08:33:38.523Z,584.10
2019-02-23T08:34:38.504Z,570.70
2019-02-23T08:35:38.496Z,564.30
2019-02-23T08:36:38.476Z,542.40
2019-02-23T08:37:38.476Z,515.80
2019-02-23T08:38:38.473Z,501.20
2019-02-23T08:39:38.458Z,473.00
2019-02-23T08:40:38.443Z,483.30
2019-02-23T08:41:38.428Z,463.50
2019-02-23T08:42:38.412Z,450.50
2019-02-23T08:43:38.419Z,454.40
2019-02-23T08:44:38.399Z,444.10
2019-02-23T08:45:38.390Z,427.00
2019-02-23T08:46:38.372Z,413.00
2019-02-23T08:47:38.366Z,395.40
2019-02-23T08:48:38.405Z,386.70
2019-02-23T08:49:38.342Z,382.00
2019-02-23T08:50:38.345Z,377.90
2019-02-23T08:51:38.327Z,379.20
2019-02-23T08:52:48.597Z,349.70
2019-02-23T08:53:39.324Z,350.40
2019-02-23T08:54:38.287Z,337.80
2019-02-23T08:55:38.283Z,326.10
2019-02-23T08:56:38.267Z,320.40
2019-02-23T08:57:38.256Z,323.50
2019-02-23T08:58:38.273Z,307.70
2019-02-23T08:59:38.236Z,307.20
2019-02-23T09:00:38.224Z,296.40
2019-02-23T09:01:38.229Z,288.20
2019-02-23T09:02:38.214Z,286.30
2019-02-23T09:03:38.198Z,281.20
2019-02-23T09:04:38.194Z,278.60
2019-02-23T09:05:38.177Z,266.10
2019-02-23T09:06:38.169Z,266.30
2019-02-23T09:07:38.150Z,259.90
2019-02-23T09:08:38.141Z,254.00
2019-02-23T09:09:38.145Z,251.30
2019-02-23T09:10:38.123Z,227.40
2019-02-23T09:11:38.106Z,218.20
2019-02-23T09:12:38.102Z,218.80
2019-02-23T09:13:38.087Z,204.00
2019-02-23T09:14:38.090Z,197.50
2019-02-23T09:15:38.067Z,194.20
2019-02-23T09:16:38.057Z,191.70
2019-02-23T09:17:38.051Z,186.40
2019-02-23T09:18:38.049Z,178.40
2019-02-23T09:19:38.036Z,180.00
2019-02-23T09:20:38.016Z,170.30
2019-02-23T09:21:38.008Z,170.00
2019-02-23T09:22:37.989Z,166.90
2019-02-23T09:23:37.984Z,158.90
2019-02-23T09:24:38.006Z,147.20
2019-02-23T09:25:37.964Z,147.10
2019-02-23T09:26:37.947Z,140.50
2019-02-23T09:27:37.939Z,146.20
2019-02-23T09:28:37.936Z,143.30
2019-02-23T09:29:37.931Z,142.00
2019-02-23T09:30:37.908Z,138.30
2019-02-23T09:31:37.897Z,135.50
2019-02-23T09:32:37.898Z,131.10
2019-02-23T09:33:37.889Z,129.70
2019-02-23T09:34:37.883Z,126.30
2019-02-23T09:35:37.862Z,127.10
2019-02-23T09:36:37.849Z,125.20
2019-02-23T09:37:37.845Z,122.40
2019-02-23T09:38:37.827Z,125.10
2019-02-23T09:39:37.827Z,117.40
2019-02-23T09:40:37.799Z,119.10
2019-02-23T09:41:37.792Z,116.20
2019-02-23T09:42:37.805Z,113.10
2019-02-23T09:43:37.804Z,113.10
2019-02-23T09:44:37.778Z,107.10
2019-02-23T09:45:37.751Z,106.70
2019-02-23T09:46:37.739Z,106.90
2019-02-23T09:47:37.730Z,104.70
2019-02-23T09:48:37.718Z,105.30
2019-02-23T09:49:37.721Z,105.50
2019-02-23T09:50:37.703Z,101.40
2019-02-23T09:51:37.769Z,101.20
2019-02-23T09:52:37.675Z,100.30
2019-02-23T09:53:37.670Z,99.10
2019-02-23T09:54:37.661Z,96.70
2019-02-23T09:55:37.641Z,95.30
2019-02-23T09:56:37.626Z,91.50
2019-02-23T09:57:37.617Z,91.40
2019-02-23T09:58:37.614Z,88.80
2019-02-23T09:59:40.068Z,85.70
2019-02-23T10:00:37.585Z,83.30
2019-02-23T10:01:37.584Z,80.10
2019-02-23T10:02:37.586Z,80.90
2019-02-23T10:03:37.551Z,79.00
2019-02-23T10:04:37.560Z,77.20
2019-02-23T10:05:38.300Z,74.10
2019-02-23T10:06:37.531Z,74.20
2019-02-23T10:07:37.512Z,73.40
2019-02-23T10:08:37.506Z,69.90
2019-02-23T10:09:37.507Z,72.00
2019-02-23T10:10:37.475Z,67.60
2019-02-23T10:11:37.485Z,67.50
2019-02-23T10:12:37.458Z,68.10
2019-02-23T10:13:37.443Z,66.70
2019-02-23T10:14:37.450Z,64.40
2019-02-23T10:15:37.422Z,61.70
2019-02-23T10:16:37.412Z,62.60
2019-02-23T10:17:37.401Z,61.30
2019-02-23T10:18:37.395Z,59.40
2019-02-23T10:19:37.407Z,60.50
2019-02-23T10:20:37.372Z,59.50
2019-02-23T10:21:37.359Z,57.50
2019-02-23T10:22:39.537Z,56.90
2019-02-23T10:23:37.340Z,55.40
2019-02-23T10:24:37.355Z,54.30
2019-02-23T10:25:37.315Z,53.50
2019-02-23T10:26:37.303Z,52.60
2019-02-23T10:27:37.297Z,52.00
2019-02-23T10:28:37.282Z,50.90
2019-02-23T10:29:37.279Z,51.20
2019-02-23T10:30:37.290Z,50.70
2019-02-23T10:31:37.265Z,47.60
2019-02-23T10:32:37.252Z,49.30
2019-02-23T10:33:47.165Z,48.40
2019-02-23T10:34:38.233Z,45.80
2019-02-23T10:35:37.209Z,46.00
2019-02-23T10:36:37.204Z,44.70
2019-02-23T10:37:37.195Z,45.80
2019-02-23T10:38:37.181Z,45.40
2019-02-23T10:39:37.177Z,43.60
2019-02-23T10:40:37.171Z,43.30
2019-02-23T10:41:37.151Z,43.30
2019-02-23T10:42:37.139Z,39.00
2019-02-23T10:43:37.129Z,38.40
2019-02-23T10:44:37.126Z,38.30
2019-02-23T10:45:37.147Z,38.50
2019-02-23T10:46:37.095Z,37.70
2019-02-23T10:47:37.092Z,37.60
2019-02-23T10:48:37.071Z,34.70
2019-02-23T10:49:37.060Z,34.20
2019-02-23T10:50:37.067Z,34.70
2019-02-23T10:51:37.045Z,34.30
2019-02-23T10:52:37.033Z,34.00
2019-02-23T10:53:37.024Z,34.50
2019-02-23T10:54:37.031Z,32.40
2019-02-23T10:55:37.018Z,32.10
2019-02-23T10:56:36.997Z,31.90
2019-02-23T10:57:36.987Z,31.80
2019-02-23T10:58:36.967Z,31.40
2019-02-23T10:59:36.962Z,31.40
2019-02-23T11:00:37.007Z,30.60
2019-02-23T11:01:36.941Z,30.40
2019-02-23T11:02:36.923Z,30.00
2019-02-23T11:03:36.917Z,31.20
2019-02-23T11:04:36.903Z,30.20
2019-02-23T11:05:36.911Z,28.30
2019-02-23T11:06:38.504Z,29.20
2019-02-23T11:07:36.915Z,27.40
2019-02-23T11:08:36.860Z,28.20
2019-02-23T11:09:36.853Z,27.20
2019-02-23T11:10:36.944Z,25.70
2019-02-23T11:11:36.830Z,26.70
2019-02-23T11:12:36.819Z,26.00
2019-02-23T11:13:36.811Z,25.50
2019-02-23T11:14:36.797Z,25.30
2019-02-23T11:15:36.802Z,25.50
2019-02-23T11:16:36.775Z,24.90
2019-02-23T11:17:36.770Z,24.70
2019-02-23T11:18:36.753Z,23.80
2019-02-23T11:19:36.755Z,24.20
2019-02-23T11:20:36.758Z,23.90
2019-02-23T11:21:36.728Z,23.40
2019-02-23T11:22:36.713Z,23.40
2019-02-23T11:23:43.948Z,22.90
2019-02-23T11:24:37.694Z,22.90
2019-02-23T11:25:36.704Z,22.80
2019-02-23T11:26:36.763Z,22.90
2019-02-23T11:27:36.655Z,23.20
2019-02-23T11:28:36.656Z,21.90
2019-02-23T11:29:36.671Z,21.70
2019-02-23T11:30:36.647Z,22.20
2019-02-23T11:31:36.623Z,22.30
2019-02-23T11:32:36.612Z,21.10
2019-02-23T11:33:36.602Z,21.30
2019-02-23T11:34:36.590Z,21.40
2019-02-23T11:35:36.611Z,20.40
2019-02-23T11:36:36.569Z,20.80
2019-02-23T11:37:36.557Z,20.30
2019-02-23T11:38:36.544Z,19.10
2019-02-23T11:39:36.535Z,19.20
2019-02-23T11:40:36.542Z,18.00
2019-02-23T11:41:36.517Z,18.00
2019-02-23T11:42:36.500Z,18.80
2019-02-23T11:43:36.495Z,17.90
2019-02-23T11:44:36.482Z,17.30
2019-02-23T11:45:36.494Z,17.90
2019-02-23T11:46:36.461Z,17.00
2019-02-23T11:47:36.446Z,18.40
2019-02-23T11:48:36.445Z,17.90
2019-02-23T11:49:36.435Z,18.70
2019-02-23T11:50:36.456Z,16.50
2019-02-23T11:51:36.424Z,17.30
2019-02-23T11:52:36.406Z,17.00
2019-02-23T11:53:36.391Z,16.50
2019-02-23T11:54:36.376Z,16.90
2019-02-23T11:55:36.364Z,16.80
2019-02-23T11:56:36.371Z,16.70
2019-02-23T11:57:36.348Z,15.20
2019-02-23T11:58:36.332Z,15.50
2019-02-23T11:59:36.319Z,15.80
2019-02-23T12:00:36.310Z,16.30
2019-02-23T12:01:36.392Z,15.60
2019-02-23T12:02:36.293Z,15.80
2019-02-23T12:03:36.281Z,15.40
2019-02-23T12:04:36.269Z,15.70
2019-02-23T12:05:36.337Z,16.20
2019-02-23T12:06:36.266Z,15.20
2019-02-23T12:07:36.242Z,15.50
2019-02-23T12:08:36.227Z,15.00
2019-02-23T12:09:36.223Z,15.20
2019-02-23T12:10:36.211Z,14.90
2019-02-23T12:11:36.209Z,14.50
2019-02-23T12:12:36.193Z,14.70
2019-02-23T12:13:36.165Z,15.00
2019-02-23T12:14:36.168Z,13.50
2019-02-23T12:15:36.148Z,14.00
2019-02-23T12:16:36.160Z,14.50
2019-02-23T12:17:36.145Z,14.00
2019-02-23T12:18:36.125Z,14.70
2019-02-23T12:19:36.127Z,14.20
2019-02-23T12:20:36.093Z,14.10
2019-02-23T12:21:36.086Z,13.70
2019-02-23T12:22:36.072Z,14.00
2019-02-23T12:23:36.062Z,12.80
2019-02-23T12:24:36.079Z,13.30
2019-02-23T12:25:36.048Z,12.90
2019-02-23T12:26:36.033Z,13.00
2019-02-23T12:27:36.023Z,13.00
2019-02-23T12:28:36.013Z,13.20
2019-02-23T12:29:36.019Z,12.70
2019-02-23T12:30:35.993Z,12.90
2019-02-23T12:31:35.987Z,12.90
2019-02-23T12:32:35.970Z,12.20
2019-02-23T12:33:35.957Z,12.80
2019-02-23T12:34:35.961Z,12.60
2019-02-23T12:35:35.937Z,12.50
2019-02-23T12:36:35.927Z,12.70
2019-02-23T12:37:35.916Z,12.00
2019-02-23T12:38:35.902Z,11.50
2019-02-23T12:39:35.917Z,12.20
2019-02-23T12:40:35.885Z,12.20
2019-02-23T12:41:35.878Z,11.50
2019-02-23T12:42:35.861Z,11.30
2019-02-23T12:43:35.851Z,11.50
2019-02-23T12:44:35.858Z,10.80
2019-02-23T12:45:35.841Z,11.20
2019-02-23T12:46:35.827Z,11.60
2019-02-23T12:47:35.808Z,11.30
2019-02-23T12:48:35.819Z,11.40
2019-02-23T12:49:35.807Z,11.80
2019-02-23T12:50:35.778Z,10.90
2019-02-23T12:51:35.767Z,11.40
2019-02-23T12:52:35.760Z,11.00
2019-02-23T12:53:35.749Z,10.70
2019-02-23T12:54:35.759Z,10.90
2019-02-23T12:55:35.721Z,10.70
2019-02-23T12:56:35.714Z,11.00
2019-02-23T12:57:35.700Z,11.20
2019-02-23T12:58:35.699Z,10.50
2019-02-23T12:59:35.721Z,11.10
2019-02-23T13:00:35.672Z,10.90
2019-02-23T13:01:35.660Z,10.50
2019-02-23T13:02:35.667Z,10.40
2019-02-23T13:03:35.641Z,10.70
2019-02-23T13:04:35.627Z,10.30
2019-02-23T13:05:35.632Z,9.90